createdAt,value
2023-11-10T00:01:53.164Z,105.30
2023-11-10T00:04:21.778Z,101.30
2023-11-10T00:06:50.348Z,107.80
2023-11-10T00:09:19.913Z,95.90
2023-11-10T00:11:49.283Z,97.70
2023-11-10T00:14:21.799Z,114.10
2023-11-10T00:16:55.821Z,101.20
2023-11-10T00:19:24.207Z,104.20
2023-11-10T00:21:52.570Z,103.60
2023-11-10T00:24:24.771Z,92.50
2023-11-10T00:26:53.045Z,93.00
2023-11-10T00:29:21.526Z,109.50
2023-11-10T00:31:49.804Z,97.70
2023-11-10T00:34:18.809Z,92.90
2023-11-10T00:36:47.754Z,101.80
2023-11-10T00:39:18.552Z,90.30
2023-11-10T00:41:54.826Z,95.00
2023-11-10T00:44:23.968Z,89.90
2023-11-10T00:46:53.061Z,93.40
2023-11-10T00:49:23.200Z,87.40
2023-11-10T00:51:51.893Z,74.90
2023-11-10T00:54:20.270Z,86.00
2023-11-10T00:56:48.517Z,90.60
2023-11-10T00:59:16.817Z,87.80
2023-11-10T01:01:45.154Z,83.40
2023-11-10T01:04:13.613Z,82.70
2023-11-10T01:06:42.649Z,99.10
2023-11-10T01:09:13.745Z,84.60
2023-11-10T01:11:42.277Z,84.90
2023-11-10T01:14:11.204Z,89.50
2023-11-10T01:16:39.465Z,90.70
2023-11-10T01:19:07.742Z,88.00
2023-11-10T01:21:36.190Z,83.70
2023-11-10T01:24:05.487Z,86.80
2023-11-10T01:26:34.889Z,79.00
2023-11-10T01:29:03.588Z,94.10
2023-11-10T01:31:31.885Z,99.90
2023-11-10T01:34:00.444Z,77.00
2023-11-10T01:36:29.346Z,79.90
2023-11-10T01:38:57.618Z,95.50
2023-11-10T01:41:26.974Z,85.70
2023-11-10T01:43:56.292Z,97.00
2023-11-10T01:46:42.536Z,76.60
2023-11-10T01:49:13.507Z,79.80
2023-11-10T01:51:42.936Z,79.10
2023-11-10T01:54:15.676Z,75.40
2023-11-10T01:56:48.408Z,94.30
2023-11-10T01:59:17.758Z,93.70
2023-11-10T02:01:49.417Z,99.80
2023-11-10T02:04:18.198Z,82.60
2023-11-10T02:06:48.569Z,86.60
2023-11-10T02:09:17.270Z,74.70
2023-11-10T02:11:46.595Z,92.50
2023-11-10T02:14:15.114Z,79.90
2023-11-10T02:16:43.778Z,94.30
2023-11-10T02:19:17.562Z,79.80
2023-11-10T02:21:47.135Z,73.80
2023-11-10T02:24:17.880Z,69.20
2023-11-10T02:26:46.505Z,76.80
2023-11-10T02:29:16.787Z,79.60
2023-11-10T02:31:45.692Z,87.60
2023-11-10T02:34:14.272Z,85.80
2023-11-10T02:36:43.060Z,77.00
2023-11-10T02:39:12.868Z,60.30
2023-11-10T02:41:41.317Z,80.60
2023-11-10T02:44:10.779Z,81.90
2023-11-10T02:46:39.506Z,78.60
2023-11-10T02:49:07.920Z,81.10
2023-11-10T02:51:36.402Z,71.30
2023-11-10T02:54:05.265Z,73.60
2023-11-10T02:56:33.709Z,76.10
2023-11-10T02:59:02.250Z,72.00
2023-11-10T03:01:31.383Z,75.90
2023-11-10T03:04:00.035Z,78.50
2023-11-10T03:06:28.606Z,77.80
2023-11-10T03:08:57.805Z,70.50
2023-11-10T03:11:26.186Z,66.80
2023-11-10T03:13:56.737Z,65.40
2023-11-10T03:16:25.356Z,63.10
2023-11-10T03:18:54.161Z,69.20
2023-11-10T03:21:24.698Z,64.00
2023-11-10T03:23:53.437Z,64.20
2023-11-10T03:26:22.028Z,62.10
2023-11-10T03:28:50.775Z,77.10
2023-11-10T03:31:20.440Z,62.90
2023-11-10T03:33:48.995Z,56.00
2023-11-10T03:36:17.747Z,75.40
2023-11-10T03:38:46.598Z,77.60
2023-11-10T03:41:14.990Z,69.10
2023-11-10T03:43:46.028Z,76.70
2023-11-10T03:46:14.500Z,78.50
2023-11-10T03:48:42.914Z,64.10
2023-11-10T03:51:12.678Z,60.20
2023-11-10T03:53:43.029Z,63.60
2023-11-10T03:56:13.471Z,62.20
2023-11-10T03:58:42.059Z,60.60
2023-11-10T04:01:13.047Z,73.50
2023-11-10T04:03:44.215Z,71.80
2023-11-10T04:06:13.423Z,67.60
2023-11-10T04:08:41.922Z,55.40
2023-11-10T04:11:10.894Z,64.30
2023-11-10T04:13:40.185Z,67.00
2023-11-10T04:16:17.600Z,60.60
2023-11-10T04:18:50.136Z,56.90
2023-11-10T04:21:27.638Z,54.20
2023-11-10T04:23:56.103Z,59.00
2023-11-10T04:26:24.362Z,58.80
2023-11-10T04:28:52.467Z,53.80
2023-11-10T04:31:21.630Z,49.80
2023-11-10T04:33:50.121Z,56.90
2023-11-10T04:36:19.886Z,51.90
2023-11-10T04:38:49.724Z,60.70
2023-11-10T04:41:22.162Z,54.40
2023-11-10T04:43:50.335Z,50.10
2023-11-10T04:46:18.795Z,60.90
2023-11-10T04:48:47.360Z,66.40
2023-11-10T04:51:16.452Z,55.50
2023-11-10T04:53:44.839Z,51.20
2023-11-10T04:56:14.277Z,50.50
2023-11-10T04:58:45.534Z,44.60
2023-11-10T05:01:14.249Z,56.30
2023-11-10T05:03:45.485Z,63.30
2023-11-10T05:06:14.089Z,63.00
2023-11-10T05:08:42.685Z,46.00
2023-11-10T05:11:13.394Z,53.90
2023-11-10T05:13:41.877Z,54.70
2023-11-10T05:16:12.807Z,53.40
2023-11-10T05:21:13.987Z,52.30
2023-11-10T05:23:42.448Z,52.40
2023-11-10T05:26:10.802Z,55.70
2023-11-10T05:28:39.370Z,59.50
2023-11-10T05:31:07.724Z,51.50
2023-11-10T05:33:36.097Z,55.40
2023-11-10T05:36:05.000Z,57.50
2023-11-10T05:38:33.296Z,57.90
2023-11-10T05:41:01.524Z,47.40
2023-11-10T05:43:29.793Z,42.80
2023-11-10T05:45:58.077Z,41.60
2023-11-10T05:48:26.664Z,46.80
2023-11-10T05:50:54.963Z,37.10
2023-11-10T05:53:23.446Z,34.80
2023-11-10T05:55:52.510Z,49.20
2023-11-10T05:58:20.966Z,50.50
2023-11-10T06:00:49.387Z,41.70
2023-11-10T06:03:18.528Z,42.70
2023-11-10T06:05:47.140Z,36.80
2023-11-10T06:08:16.501Z,49.40
2023-11-10T06:10:45.133Z,51.70
2023-11-10T06:13:15.344Z,42.80
2023-11-10T06:15:43.758Z,40.80
2023-11-10T06:18:12.176Z,42.50
2023-11-10T06:20:40.729Z,39.50
2023-11-10T06:23:09.125Z,42.90
2023-11-10T06:25:37.542Z,36.20
2023-11-10T06:28:06.077Z,38.00
2023-11-10T06:30:34.598Z,44.20
2023-11-10T06:33:03.050Z,34.90
2023-11-10T06:35:31.563Z,29.90
2023-11-10T06:38:01.197Z,44.70
2023-11-10T06:40:30.989Z,40.00
2023-11-10T06:42:59.909Z,34.00
2023-11-10T06:45:28.332Z,35.90
2023-11-10T06:47:56.851Z,33.60
2023-11-10T06:50:25.144Z,31.70
2023-11-10T06:56:54.597Z,24.70
2023-11-10T06:59:21.520Z,40.30
2023-11-10T07:01:48.763Z,22.30
2023-11-10T07:04:15.948Z,42.60
2023-11-10T07:06:42.984Z,23.30
2023-11-10T07:11:37.113Z,24.40
2023-11-10T07:14:04.236Z,31.30
2023-11-10T07:16:31.822Z,20.60
2023-11-10T07:18:59.586Z,17.40
2023-11-10T07:21:30.155Z,21.40
2023-11-10T07:23:57.102Z,29.70
2023-11-10T07:26:24.483Z,23.90
2023-11-10T07:28:52.102Z,22.80
2023-11-10T07:31:19.324Z,27.90
2023-11-10T07:33:46.364Z,20.60
2023-11-10T07:36:14.764Z,19.20
2023-11-10T07:38:42.063Z,45.20
2023-11-10T07:41:09.045Z,29.50
2023-11-10T07:43:36.792Z,21.50
2023-11-10T07:46:05.471Z,19.50
2023-11-10T07:48:36.157Z,23.80
2023-11-10T07:51:04.177Z,18.10
2023-11-10T07:53:32.152Z,21.00
2023-11-10T07:56:00.473Z,13.80
2023-11-10T07:58:27.742Z,13.10
2023-11-10T08:00:55.347Z,18.70
2023-11-10T08:03:22.536Z,16.10
2023-11-10T08:05:51.649Z,13.40
2023-11-10T08:08:18.660Z,19.90
2023-11-10T08:10:45.992Z,14.50
2023-11-10T08:13:13.063Z,16.60
2023-11-10T08:15:42.141Z,16.60
2023-11-10T08:18:09.422Z,13.40
2023-11-10T08:20:36.707Z,16.00
2023-11-10T08:25:30.546Z,14.20
2023-11-10T08:27:57.642Z,15.00
2023-11-10T08:30:24.772Z,12.50
2023-11-10T08:32:52.484Z,11.30
2023-11-10T08:35:20.673Z,12.00
2023-11-10T08:37:47.674Z,54.70
2023-11-10T08:40:14.809Z,12.50
2023-11-10T08:42:42.417Z,11.90
2023-11-10T08:45:11.147Z,14.40
2023-11-10T08:47:41.307Z,17.60
2023-11-10T08:50:12.248Z,15.70
2023-11-10T08:52:42.583Z,12.10
2023-11-10T08:55:14.142Z,20.20
2023-11-10T08:57:42.078Z,12.00
2023-11-10T09:00:10.459Z,14.80
2023-11-10T09:02:39.437Z,15.40
2023-11-10T09:05:07.233Z,17.00
2023-11-10T09:26:31.550Z,13.70
2023-11-10T09:29:00.633Z,10.60
2023-11-10T09:31:29.262Z,11.20
2023-11-10T09:33:58.999Z,11.50
2023-11-10T09:36:27.447Z,10.50
2023-11-10T09:38:56.049Z,14.30
2023-11-10T09:41:25.183Z,18.30
2023-11-10T09:43:55.181Z,18.10
2023-11-10T09:46:25.244Z,13.90
2023-11-10T09:48:56.177Z,20.90
2023-11-10T09:51:27.940Z,10.00
2023-11-10T09:53:59.640Z,11.00
2023-11-10T09:56:29.988Z,6.50
2023-11-10T09:59:01.031Z,11.90
2023-11-10T10:01:29.577Z,12.20
2023-11-10T10:03:58.005Z,11.40
2023-11-10T10:06:27.878Z,21.00
2023-11-10T10:08:56.523Z,9.00
2023-11-10T10:11:25.017Z,10.40
2023-11-10T10:13:54.134Z,8.80
2023-11-10T10:16:23.292Z,10.20
2023-11-10T10:18:56.139Z,13.70
2023-11-10T10:21:24.606Z,7.20
2023-11-10T10:23:53.469Z,6.30
2023-11-10T10:26:22.988Z,4.80
2023-11-10T10:28:52.185Z,5.70
2023-11-10T10:31:20.537Z,4.90
2023-11-10T10:33:49.042Z,13.20
2023-11-10T10:36:18.625Z,9.40
2023-11-10T10:38:50.938Z,11.10
2023-11-10T10:41:21.702Z,10.60
2023-11-10T10:43:58.494Z,16.30
2023-11-10T10:46:40.285Z,7.70
2023-11-10T10:49:09.273Z,9.20
2023-11-10T10:51:39.042Z,7.90
2023-11-10T10:54:09.559Z,6.70
2023-11-10T10:56:44.839Z,7.70
2023-11-10T10:59:14.384Z,5.40
2023-11-10T11:01:47.777Z,5.60
2023-11-10T11:04:52.686Z,7.60
2023-11-10T11:07:23.976Z,6.00
2023-11-10T11:10:29.477Z,10.30
2023-11-10T11:13:10.028Z,8.40
2023-11-10T11:16:10.366Z,5.60
2023-11-10T11:18:47.905Z,4.40
2023-11-10T11:21:17.845Z,6.80
2023-11-10T11:23:52.433Z,6.60
2023-11-10T11:26:20.784Z,6.10
2023-11-10T11:28:49.363Z,8.10
2023-11-10T11:31:22.959Z,10.80
2023-11-10T11:33:55.124Z,6.30
2023-11-10T11:36:23.949Z,5.70
2023-11-10T11:38:56.046Z,8.10
2023-11-10T11:41:27.710Z,5.30
2023-11-10T11:43:56.607Z,7.30
2023-11-10T11:46:35.720Z,8.10
2023-11-10T11:49:07.550Z,7.90
2023-11-10T11:51:36.039Z,16.10
2023-11-10T11:54:04.989Z,12.10
2023-11-10T11:56:33.591Z,5.70
2023-11-10T11:59:02.518Z,9.60
2023-11-10T12:01:38.264Z,6.90
2023-11-10T12:04:09.162Z,4.50
2023-11-10T12:06:37.960Z,6.60
2023-11-10T12:09:07.841Z,8.40
2023-11-10T12:11:37.758Z,6.40
2023-11-10T12:14:07.590Z,10.30
2023-11-10T12:16:43.211Z,8.50
2023-11-10T12:19:13.777Z,5.70
2023-11-10T12:21:43.957Z,5.20
2023-11-10T12:24:12.631Z,3.90
2023-11-10T12:26:43.440Z,7.10
2023-11-10T12:29:18.615Z,6.90
2023-11-10T12:31:50.051Z,6.40
2023-11-10T12:34:19.066Z,10.00
2023-11-10T12:36:49.046Z,5.10
2023-11-10T12:39:21.093Z,6.90
2023-11-10T12:41:55.062Z,6.40
2023-11-10T12:44:24.424Z,10.00
2023-11-10T12:46:54.087Z,5.80
2023-11-10T12:49:31.103Z,7.70
2023-11-10T12:55:39.623Z,6.60
2023-11-10T12:58:08.381Z,10.60
2023-11-10T13:00:38.600Z,10.40
2023-11-10T13:03:07.209Z,8.60
2023-11-10T13:05:36.312Z,8.00
2023-11-10T13:08:05.398Z,8.70
2023-11-10T13:10:34.318Z,6.40
2023-11-10T13:13:03.299Z,5.70
2023-11-10T13:15:32.310Z,5.90
2023-11-10T13:18:00.655Z,5.80
2023-11-10T13:20:35.881Z,5.50
2023-11-10T13:23:04.932Z,6.20
2023-11-10T13:25:33.215Z,4.40
2023-11-10T13:28:01.536Z,6.70
2023-11-10T13:30:32.009Z,8.80
2023-11-10T13:33:00.396Z,9.20
2023-11-10T13:35:28.935Z,7.90
2023-11-10T13:37:58.149Z,7.20
2023-11-10T13:40:26.462Z,4.90
2023-11-10T13:42:54.731Z,7.10
2023-11-10T13:45:23.004Z,6.60
2023-11-10T13:47:51.357Z,6.30
2023-11-10T13:50:20.036Z,12.50
2023-11-10T13:52:49.319Z,5.10
2023-11-10T13:55:18.594Z,7.90
2023-11-10T13:57:48.156Z,9.40
2023-11-10T14:00:18.633Z,6.90
2023-11-10T14:02:47.129Z,9.50
2023-11-10T14:05:16.794Z,6.80
2023-11-10T14:07:46.128Z,7.30
2023-11-10T14:10:14.491Z,6.70
2023-11-10T14:12:45.068Z,5.40
2023-11-10T14:15:16.171Z,8.90
2023-11-10T14:17:44.903Z,8.00
2023-11-10T14:20:13.819Z,9.10
2023-11-10T14:22:44.965Z,11.20
2023-11-10T14:25:13.500Z,11.00
2023-11-10T14:27:42.054Z,10.80
2023-11-10T14:30:11.284Z,6.00
2023-11-10T14:32:39.923Z,9.20
2023-11-10T14:35:11.796Z,8.60
2023-11-10T14:37:42.588Z,6.40
2023-11-10T14:40:18.853Z,11.20
2023-11-10T14:42:48.931Z,5.90
2023-11-10T14:45:17.905Z,4.90
2023-11-10T14:47:46.158Z,4.50
2023-11-10T14:50:15.161Z,8.90
2023-11-10T14:52:46.452Z,5.80
2023-11-10T14:55:15.181Z,9.90
2023-11-10T14:57:44.007Z,6.00
2023-11-10T15:00:14.576Z,6.50
2023-11-10T15:02:44.120Z,6.10
2023-11-10T15:05:15.756Z,6.90
2023-11-10T15:07:44.365Z,6.70
2023-11-10T15:10:12.914Z,7.70
2023-11-10T15:12:41.534Z,6.10
2023-11-10T15:15:10.223Z,6.00
2023-11-10T15:17:38.586Z,4.00
2023-11-10T15:20:09.672Z,5.80
2023-11-10T15:22:46.007Z,5.20
2023-11-10T15:25:14.876Z,7.70
2023-11-10T15:27:44.964Z,8.00
2023-11-10T15:30:15.033Z,5.80
2023-11-10T15:32:43.484Z,12.50
2023-11-10T15:35:12.063Z,8.10
2023-11-10T15:37:44.036Z,7.10
2023-11-10T15:40:13.592Z,10.20
2023-11-10T15:42:42.771Z,8.90
2023-11-10T15:45:12.886Z,7.60
2023-11-10T15:47:42.086Z,6.90
2023-11-10T15:50:10.598Z,8.40
2023-11-10T15:52:39.065Z,8.00
2023-11-10T15:55:09.840Z,7.20
2023-11-10T15:57:39.318Z,5.60
2023-11-10T16:00:14.038Z,9.60
2023-11-10T16:02:42.637Z,5.70
2023-11-10T16:05:12.610Z,6.40
2023-11-10T16:07:41.019Z,7.70
2023-11-10T16:10:10.798Z,7.20
2023-11-10T16:12:40.705Z,9.40
2023-11-10T16:15:10.809Z,7.80
2023-11-10T16:17:39.734Z,6.40
2023-11-10T16:20:09.881Z,10.40
2023-11-10T16:22:55.982Z,8.40
2023-11-10T16:25:24.206Z,7.30
2023-11-10T16:27:52.957Z,7.40
2023-11-10T16:30:21.609Z,5.70
2023-11-10T16:32:52.163Z,7.30
2023-11-10T16:35:20.698Z,6.70
2023-11-10T16:37:48.988Z,7.10
2023-11-10T16:40:17.572Z,8.80
2023-11-10T16:42:46.206Z,4.80
2023-11-10T16:45:14.616Z,5.70
2023-11-10T16:47:42.997Z,8.70
2023-11-10T16:50:11.503Z,8.50
2023-11-10T16:52:40.207Z,5.70
2023-11-10T16:55:10.972Z,7.10
2023-11-10T16:57:39.684Z,5.30
2023-11-10T17:00:15.218Z,7.00
2023-11-10T17:02:46.292Z,13.30
2023-11-10T17:05:23.508Z,8.40
2023-11-10T17:07:51.933Z,7.30
2023-11-10T17:10:20.365Z,7.50
2023-11-10T17:12:50.461Z,8.80
2023-11-10T17:15:19.001Z,6.60
2023-11-10T17:17:50.058Z,11.30
2023-11-10T17:20:23.311Z,7.70
2023-11-10T17:22:51.678Z,6.70
2023-11-10T17:25:20.497Z,7.70
2023-11-10T17:27:49.225Z,5.30
2023-11-10T17:30:18.015Z,10.70
2023-11-10T17:32:46.512Z,6.80
2023-11-10T17:35:15.668Z,8.60
2023-11-10T17:37:43.933Z,4.70
2023-11-10T17:40:12.890Z,13.50
2023-11-10T17:42:41.668Z,6.40
2023-11-10T17:45:13.792Z,5.20
2023-11-10T17:47:42.980Z,8.90
2023-11-10T17:50:11.993Z,8.30
2023-11-10T17:52:40.953Z,6.50
2023-11-10T17:55:10.041Z,5.60
2023-11-10T17:57:38.606Z,7.00
2023-11-10T18:00:08.429Z,5.10
2023-11-10T18:02:45.592Z,4.20
2023-11-10T18:05:14.162Z,4.70
2023-11-10T18:07:42.861Z,5.20
2023-11-10T18:10:11.449Z,5.50
2023-11-10T18:12:40.182Z,7.00
2023-11-10T18:15:11.088Z,8.50
2023-11-10T18:17:39.286Z,7.80
2023-11-10T18:20:08.392Z,6.10
2023-11-10T18:22:36.940Z,9.80
2023-11-10T18:25:05.975Z,3.90
2023-11-10T18:27:34.802Z,6.50
2023-11-10T18:30:10.642Z,8.30
2023-11-10T18:32:39.125Z,7.60
2023-11-10T18:35:08.663Z,4.40
2023-11-10T18:37:37.326Z,8.20
2023-11-10T18:40:11.954Z,6.70
2023-11-10T18:42:46.459Z,5.10
2023-11-10T18:45:15.485Z,6.50
2023-11-10T18:47:43.921Z,6.60
2023-11-10T18:50:15.666Z,5.00
2023-11-10T18:52:44.089Z,5.20
2023-11-10T18:55:12.320Z,5.30
2023-11-10T18:57:41.184Z,6.00
2023-11-10T19:00:10.992Z,7.40
2023-11-10T19:02:40.793Z,4.10
2023-11-10T19:05:09.340Z,5.00
2023-11-10T19:07:38.415Z,3.90
2023-11-10T19:10:11.224Z,4.10
2023-11-10T19:12:39.652Z,7.50
2023-11-10T19:15:08.344Z,4.80
2023-11-10T19:17:36.835Z,5.30
2023-11-10T19:20:07.468Z,5.40
2023-11-10T19:22:37.092Z,6.80
2023-11-10T19:25:06.378Z,5.90
2023-11-10T19:27:37.531Z,4.30
2023-11-10T19:30:07.699Z,5.70
2023-11-10T19:32:36.200Z,8.00
2023-11-10T19:35:04.919Z,5.50
2023-11-10T19:37:33.324Z,7.00
2023-11-10T19:40:05.305Z,7.20
2023-11-10T19:42:33.889Z,3.60
2023-11-10T19:45:03.058Z,6.10
2023-11-10T19:47:35.193Z,6.20
2023-11-10T19:50:04.789Z,7.40
2023-11-10T19:52:37.197Z,4.00
2023-11-10T19:55:08.744Z,5.70
2023-11-10T19:57:40.026Z,4.80
2023-11-10T20:02:45.615Z,5.20
2023-11-10T20:05:16.658Z,6.70
2023-11-10T20:07:45.191Z,5.80
2023-11-10T20:10:13.680Z,6.10
2023-11-10T20:12:42.216Z,4.00
2023-11-10T20:15:13.225Z,5.40
2023-11-10T20:17:42.152Z,5.70
2023-11-10T20:20:11.449Z,5.00
2023-11-10T20:22:39.904Z,6.40
2023-11-10T20:25:08.666Z,7.50
2023-11-10T20:27:42.132Z,6.40
2023-11-10T20:30:12.249Z,6.90
2023-11-10T20:32:41.277Z,6.20
2023-11-10T20:35:11.039Z,6.40
2023-11-10T20:37:41.100Z,7.40
2023-11-10T20:40:11.310Z,6.40
2023-11-10T20:42:39.759Z,5.80
2023-11-10T20:45:09.524Z,26.10
2023-11-10T20:47:45.102Z,7.30
2023-11-10T20:50:17.940Z,6.10
2023-11-10T20:52:46.357Z,5.80
2023-11-10T20:55:17.046Z,4.80
2023-11-10T20:57:45.409Z,7.90
2023-11-10T21:00:14.827Z,5.70
2023-11-10T21:02:43.555Z,6.70
2023-11-10T21:27:06.818Z,6.10
2023-11-10T21:29:34.152Z,9.00
2023-11-10T21:32:05.964Z,7.10
2023-11-10T21:34:33.108Z,4.10
2023-11-10T21:37:00.164Z,7.50
2023-11-10T21:39:27.783Z,7.80
2023-11-10T21:41:55.086Z,8.80
2023-11-10T21:44:26.332Z,6.00
2023-11-10T21:46:55.718Z,8.40
2023-11-10T21:49:25.184Z,5.20
2023-11-10T21:51:52.166Z,5.90
2023-11-10T21:54:19.198Z,6.10
2023-11-10T21:56:47.683Z,7.40
2023-11-10T21:59:16.499Z,7.70
2023-11-10T22:01:43.614Z,7.60
2023-11-10T22:04:10.895Z,7.90
2023-11-10T22:06:37.924Z,4.30
2023-11-10T22:09:06.212Z,3.70
2023-11-10T22:11:33.321Z,7.10
2023-11-10T22:14:00.794Z,4.80
2023-11-10T22:16:28.765Z,7.80
2023-11-10T22:18:56.604Z,5.90
2023-11-10T22:21:23.733Z,6.30
2023-11-10T22:23:50.949Z,7.00
2023-11-10T22:26:18.132Z,5.00
2023-11-10T22:28:45.353Z,5.70
2023-11-10T22:31:12.711Z,5.10
2023-11-10T22:33:40.233Z,7.60
2023-11-10T22:36:08.311Z,4.90
2023-11-10T22:38:35.708Z,4.30
2023-11-10T22:41:03.402Z,5.60
2023-11-10T22:43:30.632Z,5.90
2023-11-10T22:45:57.740Z,3.70
2023-11-10T22:48:24.922Z,7.90
2023-11-10T22:50:52.807Z,5.30
2023-11-10T22:53:20.174Z,5.60
2023-11-10T22:58:14.398Z,5.80
2023-11-10T23:00:45.048Z,6.90
2023-11-10T23:03:15.370Z,6.40
2023-11-10T23:05:43.558Z,5.20
2023-11-10T23:08:11.704Z,4.60
2023-11-10T23:10:42.534Z,4.00
2023-11-10T23:13:11.020Z,4.60
2023-11-10T23:15:38.432Z,4.60
2023-11-10T23:18:05.701Z,7.50
2023-11-10T23:20:34.710Z,5.00
2023-11-10T23:23:04.184Z,5.70
2023-11-10T23:25:32.051Z,4.70
2023-11-10T23:27:59.205Z,5.50
2023-11-10T23:30:26.321Z,5.50
2023-11-10T23:32:53.992Z,5.50
2023-11-10T23:35:21.696Z,8.20
2023-11-10T23:37:48.910Z,4.70
2023-11-10T23:40:15.965Z,5.30
2023-11-10T23:42:42.992Z,4.90
2023-11-10T23:45:10.742Z,2.80
2023-11-10T23:47:38.037Z,7.70
2023-11-10T23:50:07.085Z,4.60
2023-11-10T23:52:34.120Z,5.90
2023-11-10T23:55:03.023Z,7.00
2023-11-10T23:57:30.405Z,5.60
2023-11-10T23:59:57.396Z,4.90
